< < Back
Terminal Aerodrome Forecast


Current Version              Previous Versions:   1  2  3  4  5  6  7  8  9  

Terminal Aerodrome Forecast

130
FTUS42 KTAE 011700
TAFABY
TAF
KABY 011734Z 0118/0218 06006KT 5SM BR OVC007
      TEMPO 0118/0120 3SM BR OVC003
     FM020900 06003KT 1/2SM FG OVC002
     FM021600 09003KT 5SM BR OVC007=

Latest METAR

951
SAUS70 KWBC 020300
MTRABY
METAR KABY 020253Z AUTO 05004KT 5SM BR OVC005 10/09 A3041 RMK AO2 SLP298
T01000089 50003


USA.gov is the U.S. government's official web portal to all federal, state and local government web resources and services.